createdAt,value
2016-10-26T00:00:56.434Z,0
2016-10-26T00:01:55.536Z,0
2016-10-26T00:02:55.495Z,0
2016-10-26T00:03:55.665Z,0
2016-10-26T00:04:55.567Z,0
2016-10-26T00:05:55.696Z,0
2016-10-26T00:06:56.712Z,0
2016-10-26T00:07:55.714Z,0
2016-10-26T00:08:55.847Z,0
2016-10-26T00:09:55.979Z,0
2016-10-26T00:10:56.431Z,0
2016-10-26T00:11:56.478Z,0
2016-10-26T00:12:56.572Z,0
2016-10-26T00:13:56.586Z,0
2016-10-26T00:14:56.197Z,0
2016-10-26T00:15:57.212Z,0
2016-10-26T00:16:57.232Z,0
2016-10-26T00:17:56.793Z,0
2016-10-26T00:18:56.847Z,0
2016-10-26T00:19:57.051Z,0
2016-10-26T00:20:56.399Z,0
2016-10-26T00:21:57.024Z,0
2016-10-26T00:22:56.553Z,0
2016-10-26T00:23:57.127Z,0
2016-10-26T00:24:57.278Z,0
2016-10-26T00:25:57.217Z,0
2016-10-26T00:26:57.238Z,0
2016-10-26T00:27:56.776Z,0
2016-10-26T00:28:56.818Z,0
2016-10-26T00:29:57.510Z,0
2016-10-26T00:30:56.977Z,0
2016-10-26T00:31:56.999Z,0
2016-10-26T00:32:57.569Z,0
2016-10-26T00:33:57.091Z,0
2016-10-26T00:34:57.793Z,0
2016-10-26T00:35:57.941Z,0
2016-10-26T00:36:57.821Z,0
2016-10-26T00:37:57.839Z,0
2016-10-26T00:38:57.423Z,0
2016-10-26T00:39:57.478Z,0
2016-10-26T00:40:57.534Z,0
2016-10-26T00:41:57.552Z,0
2016-10-26T00:42:57.535Z,0
2016-10-26T00:43:58.171Z,0
2016-10-26T00:44:58.271Z,0
2016-10-26T00:45:58.812Z,0
2016-10-26T00:46:58.260Z,0
2016-10-26T00:47:58.409Z,0
2016-10-26T00:48:57.879Z,0
2016-10-26T00:49:58.456Z,0
2016-10-26T00:50:58.103Z,0
2016-10-26T00:51:58.567Z,0
2016-10-26T00:52:59.159Z,0
2016-10-26T00:53:58.124Z,0
2016-10-26T00:54:58.251Z,0
2016-10-26T00:55:58.377Z,0
2016-10-26T00:56:58.308Z,0
2016-10-26T00:57:59.454Z,0
2016-10-26T00:58:58.410Z,0
2016-10-26T00:59:58.502Z,0
2016-10-26T01:00:58.627Z,0
2016-10-26T01:01:59.076Z,0
2016-10-26T01:02:59.188Z,0
2016-10-26T01:03:59.241Z,0
2016-10-26T01:04:58.686Z,0
2016-10-26T01:05:59.381Z,0
2016-10-26T01:06:58.857Z,0
2016-10-26T01:07:58.891Z,0
2016-10-26T01:08:58.958Z,0
2016-10-26T01:09:58.986Z,0
2016-10-26T01:10:59.143Z,0
2016-10-26T01:11:59.650Z,0
2016-10-26T01:12:59.136Z,0
2016-10-26T01:13:59.169Z,0
2016-10-26T01:14:59.780Z,0
2016-10-26T01:15:59.944Z,0
2016-10-26T01:16:59.388Z,0
2016-10-26T01:17:59.411Z,0
2016-10-26T01:18:59.477Z,0
2016-10-26T01:19:59.558Z,0
2016-10-26T01:20:59.568Z,0
2016-10-26T01:21:59.692Z,0
2016-10-26T01:23:00.896Z,0
2016-10-26T01:23:59.721Z,0
2016-10-26T01:25:00.823Z,0
2016-10-26T01:25:59.805Z,0
2016-10-26T01:26:59.971Z,0
2016-10-26T01:27:59.913Z,0
2016-10-26T01:28:59.920Z,0
2016-10-26T01:30:00.555Z,0
2016-10-26T01:31:00.090Z,0
2016-10-26T01:32:01.245Z,0
2016-10-26T01:33:00.725Z,0
2016-10-26T01:34:00.296Z,0
2016-10-26T01:35:01.883Z,0
2016-10-26T01:36:00.368Z,0
2016-10-26T01:37:00.500Z,0
2016-10-26T01:38:00.452Z,0
2016-10-26T01:39:01.016Z,0
2016-10-26T01:40:01.560Z,0
2016-10-26T01:41:01.672Z,0
2016-10-26T01:42:01.230Z,0
2016-10-26T01:43:01.794Z,0
2016-10-26T01:44:00.793Z,0
2016-10-26T01:45:01.357Z,0
2016-10-26T01:46:01.869Z,0
2016-10-26T01:47:01.507Z,0
2016-10-26T01:48:00.994Z,0
2016-10-26T01:49:01.001Z,0
2016-10-26T01:50:01.661Z,0
2016-10-26T01:51:01.625Z,0
2016-10-26T01:52:01.774Z,0
2016-10-26T01:53:01.337Z,0
2016-10-26T01:54:01.311Z,0
2016-10-26T01:55:01.277Z,0
2016-10-26T01:56:01.438Z,0
2016-10-26T01:57:01.456Z,0
2016-10-26T01:58:01.573Z,0
2016-10-26T01:59:01.564Z,0
2016-10-26T02:00:01.554Z,0
2016-10-26T02:01:02.219Z,0
2016-10-26T02:02:01.727Z,0
2016-10-26T02:03:02.359Z,0
2016-10-26T02:04:02.311Z,0
2016-10-26T02:05:01.875Z,0
2016-10-26T02:06:02.977Z,0
2016-10-26T02:07:02.461Z,0
2016-10-26T02:08:02.583Z,0
2016-10-26T02:09:02.611Z,0
2016-10-26T02:10:02.092Z,0
2016-10-26T02:11:02.152Z,0
2016-10-26T02:12:02.166Z,0
2016-10-26T02:13:03.370Z,0
2016-10-26T02:14:02.339Z,0
2016-10-26T02:15:02.963Z,0
2016-10-26T02:16:02.929Z,0
2016-10-26T02:17:02.472Z,0
2016-10-26T02:18:03.597Z,0
2016-10-26T02:19:03.374Z,0
2016-10-26T02:20:02.641Z,0
2016-10-26T02:21:02.689Z,0
2016-10-26T02:22:02.738Z,0
2016-10-26T02:23:03.248Z,0
2016-10-26T02:24:02.868Z,0
2016-10-26T02:25:04.515Z,0
2016-10-26T02:26:03.004Z,0
2016-10-26T02:27:04.070Z,0
2016-10-26T02:28:03.018Z,0
2016-10-26T02:29:03.735Z,0
2016-10-26T02:30:03.693Z,0
2016-10-26T02:31:03.185Z,0
2016-10-26T02:32:03.802Z,0
2016-10-26T02:33:03.307Z,0
2016-10-26T02:34:03.962Z,0
2016-10-26T02:35:03.936Z,0
2016-10-26T02:36:03.952Z,0
2016-10-26T02:37:03.514Z,0
2016-10-26T02:38:04.088Z,0
2016-10-26T02:39:04.762Z,0
2016-10-26T02:40:03.679Z,0
2016-10-26T02:41:04.227Z,0
2016-10-26T02:42:03.757Z,0
2016-10-26T02:43:04.374Z,0
2016-10-26T02:44:04.450Z,0
2016-10-26T02:45:04.535Z,0
2016-10-26T02:46:04.472Z,0
2016-10-26T02:47:03.998Z,0
2016-10-26T02:48:04.113Z,0
2016-10-26T02:49:04.122Z,0
2016-10-26T02:50:04.300Z,0
2016-10-26T02:51:04.216Z,0
2016-10-26T02:52:04.307Z,0
2016-10-26T02:53:04.331Z,0
2016-10-26T02:54:04.395Z,0
2016-10-26T02:55:04.522Z,0
2016-10-26T02:56:04.461Z,0
2016-10-26T02:57:04.508Z,0
2016-10-26T02:58:05.106Z,0
2016-10-26T02:59:04.703Z,0
2016-10-26T03:00:05.332Z,0
2016-10-26T03:01:05.786Z,0
2016-10-26T03:02:05.351Z,0
2016-10-26T03:03:05.374Z,0
2016-10-26T03:04:04.876Z,0
2016-10-26T03:05:05.583Z,0
2016-10-26T03:06:05.586Z,0
2016-10-26T03:07:06.116Z,0
2016-10-26T03:08:06.182Z,0
2016-10-26T03:09:05.137Z,0
2016-10-26T03:10:05.871Z,0
2016-10-26T03:11:05.806Z,0
2016-10-26T03:12:05.841Z,0
2016-10-26T03:13:05.362Z,0
2016-10-26T03:14:05.431Z,0
2016-10-26T03:15:05.541Z,0
2016-10-26T03:16:06.105Z,0
2016-10-26T03:17:06.127Z,0
2016-10-26T03:18:05.636Z,0
2016-10-26T03:19:05.718Z,0
2016-10-26T03:20:05.822Z,0
2016-10-26T03:21:05.923Z,0
2016-10-26T03:22:06.327Z,0
2016-10-26T03:23:05.858Z,0
2016-10-26T03:24:05.979Z,0
2016-10-26T03:25:05.998Z,0
2016-10-26T03:26:06.109Z,0
2016-10-26T03:27:06.617Z,0
2016-10-26T03:28:07.192Z,0
2016-10-26T03:29:06.223Z,0
2016-10-26T03:30:06.790Z,0
2016-10-26T03:31:06.434Z,0
2016-10-26T03:32:06.393Z,0
2016-10-26T03:33:06.430Z,0
2016-10-26T03:34:06.477Z,0
2016-10-26T03:35:06.540Z,0
2016-10-26T03:36:06.671Z,0
2016-10-26T03:37:07.215Z,0
2016-10-26T03:38:07.239Z,0
2016-10-26T03:39:06.717Z,0
2016-10-26T03:40:06.776Z,0
2016-10-26T03:41:06.840Z,0
2016-10-26T03:42:07.498Z,0
2016-10-26T03:43:07.655Z,0
2016-10-26T03:44:06.998Z,0
2016-10-26T03:45:07.143Z,0
2016-10-26T03:46:07.199Z,0
2016-10-26T03:47:07.921Z,0
2016-10-26T03:48:07.863Z,0
2016-10-26T03:49:07.403Z,0
2016-10-26T03:50:07.522Z,0
2016-10-26T03:51:07.358Z,0
2016-10-26T03:52:07.579Z,0
2016-10-26T03:53:07.610Z,0
2016-10-26T03:54:07.583Z,0
2016-10-26T03:55:07.612Z,0
2016-10-26T03:56:07.754Z,0
2016-10-26T03:57:08.414Z,0
2016-10-26T03:58:08.285Z,0
2016-10-26T03:59:07.778Z,0
2016-10-26T04:00:08.000Z,0
2016-10-26T04:01:07.974Z,0
2016-10-26T04:02:08.652Z,0
2016-10-26T04:03:08.683Z,0
2016-10-26T04:04:08.912Z,0
2016-10-26T04:05:08.170Z,0
2016-10-26T04:06:08.361Z,0
2016-10-26T04:07:08.459Z,0
2016-10-26T04:08:08.389Z,0
2016-10-26T04:09:08.387Z,0
2016-10-26T04:10:08.442Z,0
2016-10-26T04:11:08.629Z,0
2016-10-26T04:12:08.784Z,0
2016-10-26T04:13:09.570Z,0
2016-10-26T04:14:08.560Z,0
2016-10-26T04:15:08.623Z,0
2016-10-26T04:16:08.672Z,0
2016-10-26T04:17:08.745Z,0
2016-10-26T04:18:09.977Z,0
2016-10-26T04:19:09.317Z,0
2016-10-26T04:20:08.877Z,0
2016-10-26T04:21:09.483Z,0
2016-10-26T04:22:10.016Z,0
2016-10-26T04:23:09.119Z,0
2016-10-26T04:24:09.088Z,0
2016-10-26T04:25:09.185Z,0
2016-10-26T04:26:09.192Z,0
2016-10-26T04:27:10.272Z,0
2016-10-26T04:28:09.927Z,0
2016-10-26T04:29:10.473Z,0
2016-10-26T04:30:09.379Z,0
2016-10-26T04:31:09.473Z,0
2016-10-26T04:32:09.499Z,0
2016-10-26T04:33:09.708Z,0
2016-10-26T04:34:09.596Z,0
2016-10-26T04:35:09.700Z,0
2016-10-26T04:36:10.299Z,0
2016-10-26T04:37:10.316Z,0
2016-10-26T04:38:09.903Z,0
2016-10-26T04:39:10.977Z,0
2016-10-26T04:40:10.445Z,0
2016-10-26T04:41:10.627Z,0
2016-10-26T04:42:10.569Z,0
2016-10-26T04:43:10.826Z,0
2016-10-26T04:44:10.710Z,0
2016-10-26T04:45:10.742Z,0
2016-10-26T04:46:11.315Z,0
2016-10-26T04:47:10.317Z,0
2016-10-26T04:48:10.329Z,0
2016-10-26T04:49:10.567Z,0
2016-10-26T04:50:10.417Z,0
2016-10-26T04:51:10.577Z,0
2016-10-26T04:52:11.605Z,0
2016-10-26T04:53:10.650Z,0
2016-10-26T04:54:11.284Z,0
2016-10-26T04:55:11.411Z,0
2016-10-26T04:56:10.718Z,0
2016-10-26T04:57:11.507Z,0
2016-10-26T04:58:10.844Z,0
2016-10-26T04:59:11.103Z,0
2016-10-26T05:00:11.087Z,0
2016-10-26T05:01:11.085Z,0
2016-10-26T05:02:12.646Z,0
2016-10-26T05:03:11.127Z,0
2016-10-26T05:04:11.291Z,0
2016-10-26T05:05:11.262Z,0
2016-10-26T05:06:11.817Z,0
2016-10-26T05:07:11.324Z,0
2016-10-26T05:08:11.407Z,0
2016-10-26T05:09:12.575Z,0
2016-10-26T05:10:11.501Z,0
2016-10-26T05:11:12.080Z,0
2016-10-26T05:12:11.599Z,0
2016-10-26T05:13:12.189Z,0
2016-10-26T05:14:12.213Z,0
2016-10-26T05:15:11.740Z,0
2016-10-26T05:16:11.788Z,0
2016-10-26T05:17:11.861Z,0
2016-10-26T05:18:12.463Z,0
2016-10-26T05:19:12.085Z,0
2016-10-26T05:20:12.520Z,0
2016-10-26T05:21:12.085Z,0
2016-10-26T05:22:12.152Z,0
2016-10-26T05:23:12.730Z,0
2016-10-26T05:24:12.829Z,0
2016-10-26T05:25:12.816Z,0
2016-10-26T05:26:12.328Z,0
2016-10-26T05:27:13.425Z,0
2016-10-26T05:28:12.415Z,0
2016-10-26T05:29:12.507Z,0
2016-10-26T05:30:13.219Z,0
2016-10-26T05:31:13.128Z,0
2016-10-26T05:32:13.135Z,0
2016-10-26T05:33:12.720Z,0
2016-10-26T05:34:12.731Z,0
2016-10-26T05:35:13.923Z,0
2016-10-26T05:36:13.375Z,0
2016-10-26T05:37:12.895Z,0
2016-10-26T05:38:12.947Z,0
2016-10-26T05:39:13.785Z,0
2016-10-26T05:40:13.201Z,0
2016-10-26T05:41:13.125Z,0
2016-10-26T05:42:13.648Z,0
2016-10-26T05:43:13.188Z,0
2016-10-26T05:44:13.273Z,0
2016-10-26T05:45:13.974Z,0
2016-10-26T05:46:13.387Z,0
2016-10-26T05:47:13.938Z,0
2016-10-26T05:48:13.479Z,0
2016-10-26T05:49:14.617Z,0
2016-10-26T05:50:14.724Z,0
2016-10-26T05:51:14.206Z,0
2016-10-26T05:52:13.687Z,0
2016-10-26T05:53:14.263Z,0
2016-10-26T05:54:13.763Z,0
2016-10-26T05:55:14.334Z,0
2016-10-26T05:56:13.983Z,0
2016-10-26T05:57:14.503Z,0
2016-10-26T05:58:14.506Z,0
2016-10-26T05:59:14.059Z,0
2016-10-26T06:00:14.706Z,0
2016-10-26T06:01:14.773Z,0
2016-10-26T06:02:14.184Z,0
2016-10-26T06:03:14.291Z,0
2016-10-26T06:04:14.296Z,0
2016-10-26T06:05:14.393Z,0
2016-10-26T06:06:15.531Z,0
2016-10-26T06:07:14.471Z,0
2016-10-26T06:08:15.008Z,0
2016-10-26T06:09:15.594Z,0
2016-10-26T06:10:15.116Z,0
2016-10-26T06:11:14.769Z,0
2016-10-26T06:12:14.726Z,0
2016-10-26T06:13:14.719Z,0
2016-10-26T06:14:14.873Z,0
2016-10-26T06:15:14.853Z,0
2016-10-26T06:16:15.081Z,0
2016-10-26T06:17:15.484Z,0
2016-10-26T06:18:15.598Z,0
2016-10-26T06:19:15.133Z,0
2016-10-26T06:20:15.105Z,0
2016-10-26T06:21:15.246Z,0
2016-10-26T06:22:16.482Z,0
2016-10-26T06:23:15.271Z,0
2016-10-26T06:24:15.333Z,0
2016-10-26T06:25:15.942Z,0
2016-10-26T06:26:16.575Z,0
2016-10-26T06:27:15.559Z,0
2016-10-26T06:28:15.546Z,0
2016-10-26T06:29:15.647Z,0
2016-10-26T06:30:16.708Z,0
2016-10-26T06:31:15.721Z,0
2016-10-26T06:32:16.331Z,0
2016-10-26T06:33:16.269Z,0
2016-10-26T06:34:16.427Z,0
2016-10-26T06:35:15.966Z,0
2016-10-26T06:36:16.628Z,0
2016-10-26T06:37:17.227Z,0
2016-10-26T06:38:16.592Z,0
2016-10-26T06:39:16.128Z,0
2016-10-26T06:40:16.202Z,0
2016-10-26T06:41:16.211Z,0
2016-10-26T06:42:16.356Z,0
2016-10-26T06:43:16.361Z,0
2016-10-26T06:44:16.915Z,0
2016-10-26T06:45:16.471Z,0
2016-10-26T06:46:18.087Z,0
2016-10-26T06:47:16.629Z,0
2016-10-26T06:48:16.589Z,0
2016-10-26T06:49:17.684Z,0
2016-10-26T06:50:17.246Z,0
2016-10-26T06:51:16.747Z,0
2016-10-26T06:52:17.394Z,0
2016-10-26T06:53:16.851Z,0
2016-10-26T06:54:16.902Z,0
2016-10-26T06:55:16.945Z,0
2016-10-26T06:56:17.529Z,0
2016-10-26T06:57:17.681Z,0
2016-10-26T06:58:17.100Z,0
2016-10-26T06:59:18.211Z,0
2016-10-26T07:00:17.197Z,0
2016-10-26T07:01:17.743Z,0
2016-10-26T07:02:17.289Z,0
2016-10-26T07:03:17.984Z,0
2016-10-26T07:04:17.885Z,0
2016-10-26T07:05:17.966Z,0
2016-10-26T07:06:18.031Z,0
2016-10-26T07:07:19.130Z,0
2016-10-26T07:08:17.709Z,0
2016-10-26T07:09:17.707Z,0
2016-10-26T07:10:17.756Z,0
2016-10-26T07:11:18.804Z,0
2016-10-26T07:12:17.824Z,0
2016-10-26T07:13:18.007Z,0
2016-10-26T07:14:18.449Z,0
2016-10-26T07:15:18.540Z,0
2016-10-26T07:16:18.548Z,0
2016-10-26T07:17:18.068Z,0
2016-10-26T07:18:18.788Z,0
2016-10-26T07:19:18.722Z,0
2016-10-26T07:20:18.289Z,0
2016-10-26T07:21:18.289Z,0
2016-10-26T07:22:18.846Z,0
2016-10-26T07:23:18.528Z,0
2016-10-26T07:24:19.050Z,0
2016-10-26T07:25:18.501Z,0
2016-10-26T07:26:18.587Z,0
2016-10-26T07:27:19.693Z,0
2016-10-26T07:28:19.283Z,0
2016-10-26T07:29:19.254Z,0
2016-10-26T07:30:19.099Z,0
2016-10-26T07:31:18.852Z,0
2016-10-26T07:32:18.929Z,0
2016-10-26T07:33:18.901Z,0
2016-10-26T07:34:19.102Z,0
2016-10-26T07:35:19.027Z,0
2016-10-26T07:36:20.192Z,0
2016-10-26T07:37:19.117Z,0
2016-10-26T07:38:19.765Z,0
2016-10-26T07:39:19.346Z,0
2016-10-26T07:40:19.294Z,0
2016-10-26T07:41:19.376Z,0
2016-10-26T07:42:19.879Z,0
2016-10-26T07:43:19.439Z,0
2016-10-26T07:44:19.577Z,0
2016-10-26T07:45:20.615Z,0
2016-10-26T07:46:20.584Z,0
2016-10-26T07:47:20.200Z,0
2016-10-26T07:48:19.708Z,0
2016-10-26T07:49:20.376Z,0
2016-10-26T07:50:19.797Z,0
2016-10-26T07:51:19.865Z,0
2016-10-26T07:52:19.936Z,0
2016-10-26T07:53:19.956Z,0
2016-10-26T07:54:20.601Z,0
2016-10-26T07:55:20.601Z,0
2016-10-26T07:56:20.656Z,0
2016-10-26T07:57:20.684Z,0
2016-10-26T07:58:20.223Z,0
2016-10-26T07:59:20.360Z,0
2016-10-26T08:00:20.278Z,0
2016-10-26T08:01:20.364Z,0
2016-10-26T08:02:21.444Z,0
2016-10-26T08:03:20.973Z,0
2016-10-26T08:04:21.202Z,0
2016-10-26T08:05:20.634Z,0
2016-10-26T08:06:20.640Z,0
2016-10-26T08:07:21.178Z,0
2016-10-26T08:08:20.746Z,0
2016-10-26T08:09:20.774Z,0
2016-10-26T08:10:21.418Z,0
2016-10-26T08:11:21.364Z,0
2016-10-26T08:12:21.445Z,0
2016-10-26T08:13:21.014Z,0
2016-10-26T08:14:22.115Z,0
2016-10-26T08:15:21.727Z,0
2016-10-26T08:16:21.674Z,0
2016-10-26T08:17:21.716Z,0
2016-10-26T08:18:21.771Z,0
2016-10-26T08:19:21.847Z,0
2016-10-26T08:20:21.496Z,0
2016-10-26T08:21:21.410Z,0
2016-10-26T08:22:21.464Z,0
2016-10-26T08:23:22.603Z,0
2016-10-26T08:24:21.554Z,0
2016-10-26T08:25:22.195Z,0
2016-10-26T08:26:21.691Z,0
2016-10-26T08:27:22.218Z,0
2016-10-26T08:28:22.333Z,0
2016-10-26T08:29:21.813Z,0
2016-10-26T08:30:21.984Z,0
2016-10-26T08:31:21.959Z,0
2016-10-26T08:32:22.498Z,0
2016-10-26T08:33:22.026Z,0
2016-10-26T08:34:22.089Z,0
2016-10-26T08:35:22.705Z,0
2016-10-26T08:36:22.219Z,0
2016-10-26T08:37:22.771Z,0
2016-10-26T08:38:22.291Z,5
2016-10-26T08:39:22.323Z,5
2016-10-26T08:40:22.401Z,5
2016-10-26T08:41:22.596Z,5
2016-10-26T08:42:23.040Z,5
2016-10-26T08:43:22.558Z,5
2016-10-26T08:44:23.191Z,5
2016-10-26T08:45:22.647Z,5
2016-10-26T08:46:22.801Z,5
2016-10-26T08:47:22.826Z,5
2016-10-26T08:48:22.843Z,5
2016-10-26T08:49:23.388Z,5
2016-10-26T08:50:23.488Z,5
2016-10-26T08:51:23.623Z,5
2016-10-26T08:52:24.106Z,5
2016-10-26T08:53:23.621Z,5
2016-10-26T08:54:23.686Z,5
2016-10-26T08:55:23.217Z,5
2016-10-26T08:56:23.322Z,5
2016-10-26T08:57:23.517Z,5
2016-10-26T08:58:23.880Z,5
2016-10-26T08:59:23.343Z,5
2016-10-26T09:00:23.459Z,5
2016-10-26T09:01:24.052Z,5
2016-10-26T09:02:24.662Z,5
2016-10-26T09:03:24.209Z,5
2016-10-26T09:04:24.691Z,5
2016-10-26T09:05:23.698Z,5
2016-10-26T09:06:23.840Z,5
2016-10-26T09:07:23.797Z,10
2016-10-26T09:08:23.841Z,10
2016-10-26T09:09:24.483Z,10
2016-10-26T09:10:23.984Z,10
2016-10-26T09:11:24.870Z,10
2016-10-26T09:12:24.148Z,10
2016-10-26T09:13:24.137Z,10
2016-10-26T09:14:24.168Z,10
2016-10-26T09:15:24.270Z,10
2016-10-26T09:16:24.382Z,10
2016-10-26T09:17:24.814Z,10
2016-10-26T09:18:24.396Z,10
2016-10-26T09:19:24.970Z,10
2016-10-26T09:20:25.560Z,10
2016-10-26T09:21:24.563Z,10
2016-10-26T09:22:24.705Z,15
2016-10-26T09:23:24.632Z,15
2016-10-26T09:24:24.707Z,15
2016-10-26T09:25:25.273Z,15
2016-10-26T09:26:24.789Z,15
2016-10-26T09:27:24.893Z,15
2016-10-26T09:28:25.440Z,15
2016-10-26T09:29:24.929Z,15
2016-10-26T09:30:25.530Z,15
2016-10-26T09:31:25.573Z,15
2016-10-26T09:32:25.192Z,15
2016-10-26T09:33:25.187Z,15
2016-10-26T09:34:25.285Z,15
2016-10-26T09:35:25.277Z,15
2016-10-26T09:36:26.875Z,15
2016-10-26T09:37:26.003Z,15
2016-10-26T09:38:25.423Z,20
2016-10-26T09:39:25.430Z,20
2016-10-26T09:40:25.550Z,20
2016-10-26T09:41:26.116Z,20
2016-10-26T09:42:25.708Z,20
2016-10-26T09:43:26.289Z,20
2016-10-26T09:44:25.742Z,20
2016-10-26T09:45:25.802Z,25
2016-10-26T09:46:25.788Z,25
2016-10-26T09:47:26.461Z,25
2016-10-26T09:48:26.505Z,25
2016-10-26T09:49:26.006Z,25
2016-10-26T09:50:26.015Z,25
2016-10-26T09:51:28.169Z,25
2016-10-26T09:52:26.772Z,25
2016-10-26T09:53:26.263Z,25
2016-10-26T09:54:26.249Z,30
2016-10-26T09:55:27.043Z,30
2016-10-26T09:56:27.067Z,30
2016-10-26T09:57:26.499Z,30
2016-10-26T09:58:27.028Z,30
2016-10-26T09:59:26.522Z,30
2016-10-26T10:00:27.073Z,30
2016-10-26T10:01:27.227Z,30
2016-10-26T10:02:27.287Z,35
2016-10-26T10:03:27.263Z,35
2016-10-26T10:04:27.322Z,35
2016-10-26T10:05:27.566Z,35
2016-10-26T10:06:26.901Z,40
2016-10-26T10:07:27.508Z,40
2016-10-26T10:08:27.145Z,40
2016-10-26T10:09:27.494Z,40
2016-10-26T10:10:27.607Z,50
2016-10-26T10:11:27.206Z,60
2016-10-26T10:12:27.198Z,55
2016-10-26T10:13:27.379Z,50
2016-10-26T10:14:27.775Z,50
2016-10-26T10:15:27.339Z,55
2016-10-26T10:16:27.380Z,65
2016-10-26T10:17:27.937Z,60
2016-10-26T10:18:27.577Z,60
2016-10-26T10:19:27.553Z,60
2016-10-26T10:20:27.674Z,60
2016-10-26T10:21:27.663Z,60
2016-10-26T10:22:28.479Z,60
2016-10-26T10:23:28.345Z,60
2016-10-26T10:24:28.314Z,60
2016-10-26T10:25:27.894Z,65
2016-10-26T10:26:27.908Z,75
2016-10-26T10:27:28.467Z,90
2016-10-26T10:28:28.621Z,85
2016-10-26T10:29:28.097Z,75
2016-10-26T10:30:28.113Z,80
2016-10-26T10:31:29.209Z,80
2016-10-26T10:32:28.710Z,85
2016-10-26T10:33:28.356Z,80
2016-10-26T10:34:28.893Z,85
2016-10-26T10:35:28.428Z,95
2016-10-26T10:36:28.423Z,105
2016-10-26T10:37:29.038Z,115
2016-10-26T10:38:29.056Z,110
2016-10-26T10:39:28.707Z,110
2016-10-26T10:40:29.196Z,105
2016-10-26T10:41:29.716Z,100
2016-10-26T10:42:29.302Z,105
2016-10-26T10:43:29.350Z,115
2016-10-26T10:44:28.953Z,120
2016-10-26T10:45:29.433Z,130
2016-10-26T10:46:30.033Z,135
2016-10-26T10:47:28.999Z,135
2016-10-26T10:48:29.603Z,130
2016-10-26T10:49:29.213Z,130
2016-10-26T10:50:29.764Z,130
2016-10-26T10:51:29.256Z,150
2016-10-26T10:52:29.287Z,140
2016-10-26T10:53:29.847Z,135
2016-10-26T10:54:30.015Z,135
2016-10-26T10:55:30.012Z,140
2016-10-26T10:56:30.102Z,150
2016-10-26T10:57:30.107Z,155
2016-10-26T10:58:30.051Z,165
2016-10-26T10:59:29.722Z,190
2016-10-26T11:00:30.281Z,190
2016-10-26T11:01:30.291Z,195
2016-10-26T11:02:30.894Z,185
2016-10-26T11:03:29.885Z,215
2016-10-26T11:04:30.050Z,225
2016-10-26T11:05:30.523Z,220
2016-10-26T11:06:30.014Z,185
2016-10-26T11:07:30.058Z,170
2016-10-26T11:08:30.666Z,165
2016-10-26T11:09:30.306Z,190
2016-10-26T11:10:30.748Z,190
2016-10-26T11:11:30.298Z,185
2016-10-26T11:12:30.924Z,200
2016-10-26T11:13:30.368Z,215
2016-10-26T11:14:30.608Z,225
2016-10-26T11:15:31.079Z,230
2016-10-26T11:16:31.072Z,205
2016-10-26T11:17:30.567Z,185
2016-10-26T11:18:31.267Z,185
2016-10-26T11:19:31.218Z,170
2016-10-26T11:20:31.353Z,165
2016-10-26T11:21:31.356Z,165
2016-10-26T11:38:41.741Z,210
2016-10-26T11:39:42.321Z,205
2016-10-26T11:40:41.838Z,210
2016-10-26T11:41:41.873Z,215
2016-10-26T11:42:42.416Z,225
2016-10-26T11:43:42.250Z,205
2016-10-26T11:44:42.003Z,195
2016-10-26T11:45:43.091Z,200
2016-10-26T11:46:42.655Z,215
2016-10-26T11:47:41.591Z,225
2016-10-26T11:48:41.710Z,235
2016-10-26T11:49:42.761Z,235
2016-10-26T11:50:42.775Z,230
2016-10-26T11:51:42.489Z,235
2016-10-26T11:52:41.901Z,240
2016-10-26T11:53:42.523Z,240
2016-10-26T11:54:42.536Z,240
2016-10-26T11:55:41.996Z,230
2016-10-26T11:56:42.011Z,235
2016-10-26T11:57:43.199Z,215
2016-10-26T11:58:43.295Z,215
2016-10-26T11:59:43.536Z,220
2016-10-26T12:00:42.965Z,220
2016-10-26T12:01:43.392Z,230
2016-10-26T12:02:43.432Z,235
2016-10-26T12:03:43.087Z,230
2016-10-26T12:04:43.768Z,235
2016-10-26T12:05:43.588Z,235
2016-10-26T12:06:42.639Z,235
2016-10-26T12:07:43.258Z,215
2016-10-26T12:08:43.304Z,220
2016-10-26T12:09:42.935Z,240
2016-10-26T12:10:43.369Z,220
2016-10-26T12:11:42.891Z,235
2016-10-26T12:12:42.904Z,235
2016-10-26T12:13:43.632Z,245
2016-10-26T12:14:43.133Z,245
2016-10-26T12:15:43.004Z,240
2016-10-26T12:16:43.038Z,235
2016-10-26T12:17:43.111Z,240
2016-10-26T12:18:43.173Z,240
2016-10-26T12:19:44.379Z,235
2016-10-26T12:20:45.244Z,230
2016-10-26T12:21:43.380Z,225
2016-10-26T12:22:43.378Z,225
2016-10-26T12:23:43.647Z,200
2016-10-26T12:24:44.578Z,220
2016-10-26T12:25:44.441Z,215
2016-10-26T12:26:48.742Z,195
2016-10-26T12:27:43.724Z,170
2016-10-26T12:28:44.237Z,155
2016-10-26T12:29:44.465Z,155
2016-10-26T12:30:44.361Z,145
2016-10-26T12:31:43.949Z,175
2016-10-26T12:32:44.953Z,190
2016-10-26T12:33:44.508Z,190
2016-10-26T12:34:44.141Z,195
2016-10-26T12:35:44.115Z,195
2016-10-26T12:36:44.726Z,200
2016-10-26T12:37:44.197Z,205
2016-10-26T12:38:44.304Z,205
2016-10-26T12:39:44.463Z,205
2016-10-26T12:40:44.393Z,210
2016-10-26T12:41:44.437Z,210
2016-10-26T12:42:44.522Z,210
2016-10-26T12:43:44.582Z,215
2016-10-26T12:44:44.765Z,215
2016-10-26T12:45:47.070Z,220
2016-10-26T12:46:44.733Z,215
2016-10-26T12:47:44.758Z,210
2016-10-26T12:48:44.800Z,195
2016-10-26T12:49:44.948Z,200
2016-10-26T12:50:45.590Z,175
2016-10-26T12:51:44.995Z,175
2016-10-26T12:52:45.062Z,185
2016-10-26T12:53:45.096Z,185
2016-10-26T12:54:45.279Z,190
2016-10-26T12:55:45.311Z,195
2016-10-26T12:56:45.299Z,165
2016-10-26T12:57:45.357Z,195
2016-10-26T12:58:45.933Z,190
2016-10-26T12:59:45.960Z,175
2016-10-26T13:00:45.553Z,190
2016-10-26T13:01:45.578Z,180
2016-10-26T13:02:45.653Z,185
2016-10-26T13:03:45.701Z,195
2016-10-26T13:04:45.784Z,200
2016-10-26T13:05:46.418Z,195
2016-10-26T13:06:46.378Z,195
2016-10-26T13:07:46.410Z,195
2016-10-26T13:08:46.516Z,190
2016-10-26T13:09:47.042Z,185
2016-10-26T13:10:46.679Z,185
2016-10-26T13:11:46.117Z,180
2016-10-26T13:12:46.188Z,175
2016-10-26T13:13:46.241Z,185
2016-10-26T13:14:46.844Z,185
2016-10-26T13:15:47.485Z,185
2016-10-26T13:16:47.942Z,185
2016-10-26T13:17:46.985Z,190
2016-10-26T13:18:46.525Z,190
2016-10-26T13:19:46.583Z,190
2016-10-26T13:20:46.740Z,190
2016-10-26T13:21:47.246Z,190
2016-10-26T13:22:46.840Z,190
2016-10-26T13:23:46.833Z,190
2016-10-26T13:24:46.853Z,160
2016-10-26T13:25:47.412Z,190
2016-10-26T13:26:47.882Z,180
2016-10-26T13:27:47.559Z,190
2016-10-26T13:28:48.685Z,185
2016-10-26T13:29:47.664Z,190
2016-10-26T13:30:47.203Z,185
2016-10-26T13:31:48.416Z,185
2016-10-26T13:32:48.301Z,180
2016-10-26T13:33:48.943Z,180
2016-10-26T21:33:17.465Z,0
2016-10-26T21:34:18.402Z,0
2016-10-26T21:35:17.288Z,0
2016-10-26T21:36:17.447Z,0
2016-10-26T21:37:18.047Z,0
2016-10-26T21:38:18.673Z,0
2016-10-26T21:39:18.092Z,0
2016-10-26T21:40:18.831Z,0
2016-10-26T21:41:17.657Z,0
2016-10-26T21:42:18.305Z,0
2016-10-26T21:43:18.375Z,0
2016-10-26T21:44:18.171Z,0
2016-10-26T21:45:18.334Z,0
2016-10-26T21:46:17.905Z,0
2016-10-26T21:47:17.979Z,0
2016-10-26T21:48:18.896Z,0
2016-10-26T21:49:18.618Z,0
2016-10-26T21:50:18.841Z,0
2016-10-26T21:51:18.369Z,0
2016-10-26T21:52:19.499Z,0
2016-10-26T21:53:18.937Z,0
2016-10-26T21:54:18.711Z,0
2016-10-26T21:55:18.380Z,0
2016-10-26T21:56:18.947Z,0
2016-10-26T21:57:18.542Z,0
2016-10-26T21:58:19.471Z,0
2016-10-26T21:59:18.561Z,0
2016-10-26T22:00:19.117Z,0
2016-10-26T22:01:18.766Z,0
2016-10-26T22:02:19.153Z,0
2016-10-26T22:03:19.344Z,0
2016-10-26T22:04:19.806Z,0
2016-10-26T22:05:19.306Z,0
2016-10-26T22:06:19.901Z,0
2016-10-26T22:07:19.098Z,0
2016-10-26T22:08:19.453Z,0
2016-10-26T22:09:18.952Z,0
2016-10-26T22:10:18.974Z,0
2016-10-26T22:11:19.501Z,0
2016-10-26T22:12:19.095Z,0
2016-10-26T22:13:19.265Z,0
2016-10-26T22:14:19.200Z,0
2016-10-26T22:15:19.426Z,0
2016-10-26T22:16:19.285Z,0
2016-10-26T22:17:19.336Z,0
2016-10-26T22:18:19.341Z,0
2016-10-26T22:19:20.070Z,0
2016-10-26T22:20:19.536Z,0
2016-10-26T22:21:20.034Z,0
2016-10-26T22:22:20.130Z,0
2016-10-26T22:23:19.868Z,0
2016-10-26T22:24:19.800Z,0
2016-10-26T22:25:19.780Z,0
2016-10-26T22:26:19.851Z,0
2016-10-26T22:27:20.062Z,0
2016-10-26T22:28:19.990Z,0
2016-10-26T22:29:20.082Z,0
2016-10-26T22:30:19.999Z,0
2016-10-26T22:31:20.686Z,0
2016-10-26T22:32:20.131Z,0
2016-10-26T22:33:20.236Z,0
2016-10-26T22:34:20.365Z,0
2016-10-26T22:35:20.342Z,0
2016-10-26T22:36:20.360Z,0
2016-10-26T22:37:20.440Z,0
2016-10-26T22:38:20.475Z,0
2016-10-26T22:39:20.607Z,0
2016-10-26T22:40:21.127Z,0
2016-10-26T22:41:20.613Z,0
2016-10-26T22:42:20.692Z,0
2016-10-26T22:43:20.772Z,0
2016-10-26T22:44:20.896Z,0
2016-10-26T22:45:20.847Z,0
2016-10-26T22:46:20.943Z,0
2016-10-26T22:47:21.439Z,0
2016-10-26T22:48:20.987Z,0